createdAt,value
2023-05-24T00:00:22.300Z,13.27
2023-05-24T00:02:49.334Z,13.18
2023-05-24T00:05:16.936Z,13.60
2023-05-24T00:07:43.848Z,15.45
2023-05-24T00:10:11.303Z,14.40
2023-05-24T00:12:38.192Z,15.02
2023-05-24T00:15:05.347Z,13.82
2023-05-24T00:17:32.326Z,13.88
2023-05-24T00:19:59.809Z,14.55
2023-05-24T00:22:26.656Z,14.90
2023-05-24T00:24:53.515Z,18.02
2023-05-24T00:27:20.413Z,22.08
2023-05-24T00:29:47.277Z,18.55
2023-05-24T00:32:14.123Z,17.13
2023-05-24T00:34:41.040Z,15.07
2023-05-24T00:37:08.250Z,14.32
2023-05-24T00:39:35.304Z,13.73
2023-05-24T00:42:02.889Z,15.68
2023-05-24T00:44:30.237Z,16.55
2023-05-24T00:46:57.316Z,14.77
2023-05-24T00:49:24.419Z,13.63
2023-05-24T00:51:53.394Z,13.38
2023-05-24T00:54:21.053Z,13.52
2023-05-24T00:56:48.430Z,13.52
2023-05-24T00:59:15.734Z,15.60
2023-05-24T01:01:42.824Z,15.50
2023-05-24T01:04:09.738Z,15.35
2023-05-24T01:06:45.093Z,15.60
2023-05-24T01:09:23.062Z,15.40
2023-05-24T01:12:08.511Z,15.10
2023-05-24T01:15:06.268Z,16.83
2023-05-24T01:17:39.019Z,16.50
2023-05-24T01:20:10.211Z,19.40
2023-05-24T01:23:18.800Z,18.92
2023-05-24T01:26:08.975Z,17.05
2023-05-24T01:28:36.445Z,15.60
2023-05-24T01:31:05.062Z,16.90
2023-05-24T01:33:32.758Z,17.73
2023-05-24T01:35:59.521Z,17.90
2023-05-24T01:38:26.356Z,17.42
2023-05-24T01:41:05.949Z,17.50
2023-05-24T01:43:43.410Z,18.02
2023-05-24T01:46:14.128Z,17.08
2023-05-24T01:49:03.249Z,18.00
2023-05-24T01:51:38.773Z,17.70
2023-05-24T01:54:06.970Z,18.08
2023-05-24T01:56:35.895Z,17.90
2023-05-24T01:59:03.717Z,17.17
2023-05-24T02:01:32.011Z,17.15
2023-05-24T02:03:59.858Z,16.50
2023-05-24T02:06:26.685Z,15.68
2023-05-24T02:08:53.681Z,15.30
2023-05-24T02:11:20.848Z,14.77
2023-05-24T02:13:47.675Z,16.13
2023-05-24T02:16:14.612Z,16.73
2023-05-24T02:18:44.582Z,15.93
2023-05-24T02:21:11.988Z,16.17
2023-05-24T02:23:38.849Z,16.05
2023-05-24T02:26:05.757Z,15.77
2023-05-24T02:28:32.602Z,15.45
2023-05-24T02:30:59.482Z,16.17
2023-05-24T02:33:26.402Z,16.50
2023-05-24T02:35:53.230Z,16.30
2023-05-24T02:38:20.195Z,16.67
2023-05-24T02:40:47.048Z,17.00
2023-05-24T02:43:13.925Z,15.68
2023-05-24T02:45:40.786Z,17.55
2023-05-24T02:48:07.686Z,17.17
2023-05-24T02:50:34.562Z,16.40
2023-05-24T02:53:01.558Z,16.83
2023-05-24T02:55:29.222Z,17.58
2023-05-24T02:57:56.463Z,17.58
2023-05-24T03:00:23.686Z,17.55
2023-05-24T03:02:53.648Z,18.77
2023-05-24T03:05:20.593Z,15.93
2023-05-24T03:07:47.385Z,15.45
2023-05-24T03:10:15.944Z,19.73
2023-05-24T03:12:42.930Z,20.30
2023-05-24T03:15:10.523Z,18.92
2023-05-24T03:17:37.350Z,18.08
2023-05-24T03:20:05.919Z,15.57
2023-05-24T03:22:32.763Z,16.13
2023-05-24T03:24:59.592Z,16.55
2023-05-24T03:27:26.433Z,16.70
2023-05-24T03:29:53.396Z,17.95
2023-05-24T03:32:20.189Z,17.55
2023-05-24T03:34:47.069Z,18.23
2023-05-24T03:37:13.869Z,17.80
2023-05-24T03:39:40.637Z,17.35
2023-05-24T03:42:07.619Z,17.33
2023-05-24T03:44:34.709Z,16.88
2023-05-24T03:47:01.568Z,16.13
2023-05-24T03:49:28.354Z,16.60
2023-05-24T03:51:55.223Z,16.63
2023-05-24T03:54:22.014Z,17.45
2023-05-24T03:56:48.789Z,25.58
2023-05-24T03:59:15.928Z,20.13
2023-05-24T04:01:42.688Z,20.45
2023-05-24T04:04:09.584Z,19.10
2023-05-24T04:06:36.870Z,18.52
2023-05-24T04:09:05.885Z,18.45
2023-05-24T04:11:32.778Z,22.25
2023-05-24T04:14:02.944Z,20.38
2023-05-24T04:16:34.042Z,18.75
2023-05-24T04:19:03.911Z,16.90
2023-05-24T04:21:32.236Z,16.85
2023-05-24T04:24:03.412Z,16.05
2023-05-24T04:26:30.871Z,15.70
2023-05-24T04:28:58.002Z,16.35
2023-05-24T04:31:26.249Z,16.67
2023-05-24T04:33:53.235Z,15.85
2023-05-24T04:36:20.042Z,16.60
2023-05-24T04:38:47.274Z,18.23
2023-05-24T04:41:14.250Z,18.25
2023-05-24T04:43:41.196Z,18.17
2023-05-24T04:46:09.412Z,18.15
2023-05-24T04:48:36.727Z,17.00
2023-05-24T04:51:03.693Z,19.55
2023-05-24T04:53:30.577Z,18.60
2023-05-24T04:55:57.409Z,18.48
2023-05-24T04:58:24.234Z,20.05
2023-05-24T05:00:51.229Z,19.70
2023-05-24T05:03:18.451Z,19.50
2023-05-24T05:05:46.548Z,19.52
2023-05-24T05:08:14.115Z,19.17
2023-05-24T05:10:41.231Z,19.15
2023-05-24T05:13:08.430Z,19.23
2023-05-24T05:15:35.214Z,19.65
2023-05-24T05:18:02.025Z,19.55
2023-05-24T05:20:28.949Z,20.25
2023-05-24T05:22:55.818Z,19.63
2023-05-24T05:25:22.752Z,19.20
2023-05-24T05:27:49.588Z,20.15
2023-05-24T05:30:16.500Z,20.20
2023-05-24T05:32:43.404Z,20.50
2023-05-24T05:35:10.408Z,19.33
2023-05-24T05:37:37.288Z,19.27
2023-05-24T05:40:04.709Z,19.98
2023-05-24T05:42:31.549Z,20.10
2023-05-24T05:44:58.452Z,19.50
2023-05-24T05:47:25.323Z,19.35
2023-05-24T05:49:52.107Z,19.25
2023-05-24T05:52:18.952Z,19.40
2023-05-24T05:54:45.905Z,19.23
2023-05-24T05:57:13.013Z,19.73
2023-05-24T05:59:42.077Z,19.50
2023-05-24T06:02:08.928Z,19.20
2023-05-24T06:04:40.995Z,18.52
2023-05-24T06:07:07.801Z,18.50
2023-05-24T06:09:34.656Z,18.50
2023-05-24T06:12:01.503Z,18.98
2023-05-24T06:14:28.372Z,18.48
2023-05-24T06:16:56.186Z,17.90
2023-05-24T06:19:25.059Z,30.85
2023-05-24T06:21:52.373Z,19.25
2023-05-24T06:24:22.796Z,15.88
2023-05-24T06:26:51.855Z,14.82
2023-05-24T06:29:22.601Z,14.98
2023-05-24T06:31:50.090Z,14.80
2023-05-24T06:34:19.101Z,14.45
2023-05-24T06:36:47.910Z,14.50
2023-05-24T06:39:16.283Z,13.35
2023-05-24T06:41:43.645Z,12.68
2023-05-24T06:44:11.126Z,12.77
2023-05-24T06:46:38.351Z,12.98
2023-05-24T06:49:05.494Z,12.20
2023-05-24T06:51:33.920Z,10.73
2023-05-24T06:54:01.029Z,10.60
2023-05-24T06:56:29.049Z,9.73
2023-05-24T06:58:56.914Z,10.45
2023-05-24T07:02:02.784Z,10.23
2023-05-24T07:04:31.286Z,10.43
2023-05-24T07:07:00.683Z,10.70
2023-05-24T07:09:27.637Z,10.18
2023-05-24T07:11:54.668Z,10.57
2023-05-24T07:14:23.195Z,10.80
2023-05-24T07:16:50.129Z,10.88
2023-05-24T07:19:17.033Z,10.40
2023-05-24T07:21:43.858Z,10.13
2023-05-24T07:24:10.829Z,11.02
2023-05-24T07:26:37.616Z,11.20
2023-05-24T07:29:04.453Z,10.85
2023-05-24T07:31:32.606Z,11.10
2023-05-24T07:33:59.458Z,11.30
2023-05-24T07:36:27.086Z,11.55
2023-05-24T07:38:54.411Z,12.02
2023-05-24T07:41:29.384Z,12.60
2023-05-24T07:44:24.417Z,11.40
2023-05-24T07:46:51.704Z,11.30
2023-05-24T07:49:18.605Z,10.55
2023-05-24T07:51:45.987Z,9.52
2023-05-24T07:54:12.849Z,10.60
2023-05-24T07:56:39.786Z,10.93
2023-05-24T07:59:06.848Z,10.73
2023-05-24T08:01:36.522Z,10.63
2023-05-24T08:04:09.019Z,10.63
2023-05-24T08:06:36.358Z,9.98
2023-05-24T08:09:04.564Z,11.45
2023-05-24T08:11:31.349Z,12.48
2023-05-24T08:13:58.206Z,12.57
2023-05-24T08:16:25.030Z,13.68
2023-05-24T08:18:54.206Z,12.82
2023-05-24T08:21:22.598Z,14.13
2023-05-24T08:23:49.457Z,13.68
2023-05-24T08:26:19.190Z,14.23
2023-05-24T08:28:46.062Z,14.63
2023-05-24T08:31:12.935Z,14.07
2023-05-24T08:33:40.930Z,14.55
2023-05-24T08:36:07.806Z,14.60
2023-05-24T08:38:34.845Z,15.27
2023-05-24T08:41:07.414Z,14.60
2023-05-24T08:43:35.032Z,14.57
2023-05-24T08:46:03.395Z,13.80
2023-05-24T08:48:30.330Z,14.48
2023-05-24T08:50:58.543Z,16.20
2023-05-24T08:53:27.010Z,13.93
2023-05-24T08:55:55.939Z,14.93
2023-05-24T08:58:23.272Z,13.65
2023-05-24T09:00:54.440Z,14.88
2023-05-24T09:03:23.298Z,13.38
2023-05-24T09:05:50.745Z,14.32
2023-05-24T09:08:18.936Z,37.08
2023-05-24T09:10:55.008Z,118.53
2023-05-24T09:13:24.944Z,113.55
2023-05-24T09:15:52.039Z,78.43
2023-05-24T09:18:18.953Z,73.38
2023-05-24T09:20:46.161Z,94.35
2023-05-24T09:23:14.657Z,28.90
2023-05-24T09:25:46.132Z,89.38
2023-05-24T09:28:18.639Z,55.22
2023-05-24T09:30:57.414Z,13.90
2023-05-24T09:33:28.350Z,15.88
2023-05-24T09:36:01.535Z,14.43
2023-05-24T09:38:29.698Z,14.00
2023-05-24T09:41:04.863Z,37.70
2023-05-24T09:43:34.554Z,26.67
2023-05-24T09:46:04.857Z,20.88
2023-05-24T09:48:32.129Z,15.82
2023-05-24T09:51:07.567Z,14.35
2023-05-24T09:53:35.836Z,12.75
2023-05-24T09:56:08.588Z,14.25
2023-05-24T09:58:36.709Z,14.18
2023-05-24T10:01:08.434Z,16.88
2023-05-24T10:03:37.446Z,13.13
2023-05-24T10:06:07.852Z,42.33
2023-05-24T10:08:36.444Z,21.80
2023-05-24T10:11:06.370Z,15.10
2023-05-24T10:13:36.564Z,14.30
2023-05-24T10:16:03.952Z,13.90
2023-05-24T10:18:31.333Z,31.17
2023-05-24T10:20:59.368Z,14.05
2023-05-24T10:23:30.545Z,13.68
2023-05-24T10:26:12.705Z,13.88
2023-05-24T10:28:44.769Z,13.35
2023-05-24T10:31:13.191Z,14.13
2023-05-24T10:33:42.840Z,17.13
2023-05-24T10:36:13.098Z,43.78
2023-05-24T10:38:40.594Z,15.90
2023-05-24T10:41:08.484Z,25.90
2023-05-24T10:43:38.803Z,14.82
2023-05-24T10:46:09.528Z,18.25
2023-05-24T10:48:38.483Z,15.13
2023-05-24T10:51:32.896Z,21.80
2023-05-24T10:54:12.581Z,15.25
2023-05-24T10:57:04.880Z,15.50
2023-05-24T10:59:40.030Z,14.88
2023-05-24T11:02:10.061Z,14.98
2023-05-24T11:04:40.108Z,15.10
2023-05-24T11:07:11.557Z,14.63
2023-05-24T11:09:46.663Z,15.05
2023-05-24T11:12:18.296Z,15.38
2023-05-24T11:14:50.466Z,14.57
2023-05-24T11:17:18.804Z,13.57
2023-05-24T11:19:50.813Z,14.30
2023-05-24T11:22:20.130Z,14.43
2023-05-24T11:24:47.468Z,18.48
2023-05-24T11:27:14.940Z,14.75
2023-05-24T11:29:44.972Z,14.93
2023-05-24T11:32:17.341Z,15.98
2023-05-24T11:34:49.753Z,15.18
2023-05-24T11:37:18.243Z,14.60
2023-05-24T11:39:51.394Z,15.10
2023-05-24T11:42:18.502Z,14.13
2023-05-24T11:44:48.555Z,13.65
2023-05-24T11:47:15.668Z,13.80
2023-05-24T11:49:42.536Z,12.90
2023-05-24T11:52:09.416Z,13.88
2023-05-24T11:54:43.269Z,13.77
2023-05-24T11:57:13.191Z,14.27
2023-05-24T12:00:11.136Z,14.02
2023-05-24T12:02:38.257Z,13.73
2023-05-24T12:05:09.918Z,13.00
2023-05-24T12:10:06.108Z,13.82
2023-05-24T12:12:42.407Z,12.07
2023-05-24T12:15:12.805Z,12.25
2023-05-24T12:17:39.658Z,12.45
2023-05-24T12:20:07.240Z,12.35
2023-05-24T12:22:34.104Z,11.93
2023-05-24T12:25:00.906Z,12.60
2023-05-24T12:27:28.558Z,12.73
2023-05-24T12:29:55.344Z,12.93
2023-05-24T12:32:22.387Z,12.70
2023-05-24T12:34:50.394Z,12.45
2023-05-24T12:37:18.581Z,12.07
2023-05-24T12:39:45.645Z,13.38
2023-05-24T12:42:16.125Z,11.82
2023-05-24T12:44:45.036Z,10.13
2023-05-24T12:47:12.199Z,9.88
2023-05-24T12:49:39.091Z,9.70
2023-05-24T12:52:06.822Z,8.77
2023-05-24T12:54:33.879Z,9.18
2023-05-24T12:57:02.532Z,8.93
2023-05-24T12:59:29.562Z,8.98
2023-05-24T13:01:56.712Z,8.90
2023-05-24T13:04:26.361Z,9.00
2023-05-24T13:06:53.533Z,9.25
2023-05-24T13:09:22.489Z,9.32
2023-05-24T13:11:49.421Z,10.27
2023-05-24T13:14:16.988Z,9.30
2023-05-24T13:16:44.618Z,8.27
2023-05-24T13:19:12.447Z,8.50
2023-05-24T13:21:39.972Z,8.98
2023-05-24T13:24:07.685Z,8.63
2023-05-24T13:26:38.081Z,8.73
2023-05-24T13:31:40.561Z,9.50
2023-05-24T13:34:09.225Z,10.00
2023-05-24T13:36:36.303Z,10.38
2023-05-24T13:39:13.886Z,11.38
2023-05-24T13:41:42.583Z,10.00
2023-05-24T13:44:30.694Z,11.20
2023-05-24T13:46:57.753Z,12.02
2023-05-24T13:49:25.818Z,12.77
2023-05-24T13:51:55.587Z,12.40
2023-05-24T13:54:24.150Z,12.32
2023-05-24T13:56:51.073Z,12.30
2023-05-24T13:59:17.903Z,11.57
2023-05-24T14:01:45.769Z,12.25
2023-05-24T14:04:12.681Z,11.43
2023-05-24T14:06:39.545Z,11.95
2023-05-24T14:09:08.337Z,12.13
2023-05-24T14:11:35.844Z,13.02
2023-05-24T14:16:32.539Z,12.57
2023-05-24T14:18:59.428Z,12.27
2023-05-24T14:21:27.074Z,11.07
2023-05-24T14:23:54.295Z,11.63
2023-05-24T14:26:25.412Z,11.45
2023-05-24T14:28:55.338Z,12.02
2023-05-24T14:31:23.495Z,11.70
2023-05-24T14:33:50.705Z,12.00
2023-05-24T14:36:17.532Z,11.93
2023-05-24T14:38:44.353Z,11.85
2023-05-24T14:41:11.263Z,11.55
2023-05-24T14:43:38.058Z,10.93
2023-05-24T14:46:05.097Z,12.95
2023-05-24T14:48:31.934Z,17.17
2023-05-24T14:50:58.801Z,30.08
2023-05-24T14:53:26.002Z,13.18
2023-05-24T14:55:54.453Z,11.50
2023-05-24T14:58:21.962Z,11.68
2023-05-24T15:00:49.045Z,15.60
2023-05-24T15:03:16.133Z,13.80
2023-05-24T15:05:43.216Z,15.68
2023-05-24T15:08:11.536Z,12.63
2023-05-24T15:10:39.437Z,12.73
2023-05-24T15:13:06.780Z,11.65
2023-05-24T15:15:33.632Z,11.75
2023-05-24T15:18:00.695Z,11.70
2023-05-24T15:20:27.875Z,12.40
2023-05-24T15:22:55.118Z,12.43
2023-05-24T15:25:22.432Z,12.48
2023-05-24T15:27:49.313Z,11.95
2023-05-24T15:30:17.493Z,12.10
2023-05-24T15:32:46.509Z,12.20
2023-05-24T15:35:13.543Z,11.57
2023-05-24T15:37:41.489Z,11.18
2023-05-24T15:40:10.648Z,11.70
2023-05-24T15:42:37.506Z,11.10
2023-05-24T15:45:04.694Z,12.07
2023-05-24T15:47:36.549Z,10.45
2023-05-24T15:50:04.149Z,11.45
2023-05-24T15:52:31.354Z,10.65
2023-05-24T15:54:58.270Z,10.05
2023-05-24T15:57:25.035Z,10.30
2023-05-24T15:59:53.289Z,9.48
2023-05-24T16:02:21.292Z,10.23
2023-05-24T16:04:48.457Z,10.52
2023-05-24T16:07:15.357Z,10.23
2023-05-24T16:09:42.216Z,9.70
2023-05-24T16:12:09.924Z,10.48
2023-05-24T16:14:36.691Z,9.82
2023-05-24T16:17:05.632Z,9.25
2023-05-24T16:19:32.480Z,9.93
2023-05-24T16:21:59.289Z,9.07
2023-05-24T16:24:26.880Z,9.60
2023-05-24T16:26:53.711Z,10.00
2023-05-24T16:29:21.362Z,10.07
2023-05-24T16:31:48.358Z,10.77
2023-05-24T16:34:16.514Z,10.88
2023-05-24T16:36:45.763Z,11.60
2023-05-24T16:39:12.593Z,11.32
2023-05-24T16:41:40.383Z,10.30
2023-05-24T16:44:07.714Z,10.18
2023-05-24T16:46:34.759Z,10.43
2023-05-24T16:49:03.362Z,8.50
2023-05-24T16:51:30.378Z,8.00
2023-05-24T16:53:57.222Z,9.18
2023-05-24T16:56:24.021Z,8.48
2023-05-24T16:58:51.246Z,8.50
2023-05-24T17:01:18.171Z,8.38
2023-05-24T17:03:45.157Z,8.27
2023-05-24T17:06:12.077Z,8.55
2023-05-24T17:08:39.174Z,8.90
2023-05-24T17:11:06.772Z,7.45
2023-05-24T17:13:34.208Z,6.45
2023-05-24T17:16:03.630Z,6.22
2023-05-24T17:18:30.556Z,5.40
2023-05-24T17:20:59.201Z,5.40
2023-05-24T17:23:27.048Z,5.05
2023-05-24T17:25:55.499Z,4.95
2023-05-24T17:28:27.593Z,4.50
2023-05-24T17:30:59.295Z,5.00
2023-05-24T17:33:27.988Z,4.82
2023-05-24T17:35:56.626Z,4.93
2023-05-24T17:38:24.970Z,4.60
2023-05-24T17:40:59.636Z,3.90
2023-05-24T17:43:32.600Z,3.90
2023-05-24T17:46:05.901Z,3.60
2023-05-24T17:48:34.323Z,4.82
2023-05-24T17:51:02.078Z,5.22
2023-05-24T17:53:32.159Z,5.18
2023-05-24T17:55:59.494Z,5.60
2023-05-24T17:58:26.983Z,5.15
2023-05-24T18:00:53.824Z,6.07
2023-05-24T18:03:20.777Z,6.00
2023-05-24T18:05:47.570Z,5.50
2023-05-24T18:08:14.402Z,6.22
2023-05-24T18:10:41.236Z,5.95
2023-05-24T18:13:09.367Z,5.05
2023-05-24T18:15:36.608Z,4.85
2023-05-24T18:18:04.779Z,4.93
2023-05-24T18:20:31.762Z,5.43
2023-05-24T18:22:58.598Z,6.57
2023-05-24T18:25:25.853Z,5.50
2023-05-24T18:27:52.695Z,5.45
2023-05-24T18:30:22.024Z,5.32
2023-05-24T18:33:04.533Z,4.93
2023-05-24T18:35:34.190Z,7.20
2023-05-24T18:38:01.117Z,5.22
2023-05-24T18:40:27.937Z,4.38
2023-05-24T18:42:54.725Z,4.30
2023-05-24T18:45:21.791Z,4.68
2023-05-24T18:47:48.635Z,4.82
2023-05-24T18:50:15.737Z,4.70
2023-05-24T18:52:42.533Z,4.75
2023-05-24T18:55:12.091Z,5.05
2023-05-24T18:57:39.375Z,5.90
2023-05-24T19:00:07.353Z,5.18
2023-05-24T19:02:43.900Z,5.07
2023-05-24T19:05:11.020Z,4.85
2023-05-24T19:07:37.831Z,4.80
2023-05-24T19:10:05.059Z,4.60
2023-05-24T19:12:31.942Z,4.95
2023-05-24T19:14:59.099Z,4.95
2023-05-24T19:17:26.116Z,5.15
2023-05-24T19:19:53.031Z,5.00
2023-05-24T19:22:20.374Z,4.82
2023-05-24T19:24:47.292Z,5.43
2023-05-24T19:27:14.622Z,5.30
2023-05-24T19:29:41.422Z,5.18
2023-05-24T19:32:08.507Z,5.72
2023-05-24T19:34:37.320Z,5.40
2023-05-24T19:37:04.479Z,6.15
2023-05-24T19:39:31.318Z,5.43
2023-05-24T19:41:58.110Z,5.78
2023-05-24T19:44:24.896Z,6.78
2023-05-24T19:46:51.693Z,5.70
2023-05-24T19:49:20.600Z,5.75
2023-05-24T19:51:47.388Z,6.75
2023-05-24T19:54:19.325Z,5.75
2023-05-24T19:56:49.843Z,5.63
2023-05-24T19:59:20.084Z,5.63
2023-05-24T20:01:46.943Z,5.55
2023-05-24T20:04:13.839Z,5.40
2023-05-24T20:06:40.878Z,5.72
2023-05-24T20:09:08.559Z,5.80
2023-05-24T20:11:35.406Z,6.03
2023-05-24T20:14:02.538Z,5.80
2023-05-24T20:16:31.173Z,6.55
2023-05-24T20:18:58.062Z,6.10
2023-05-24T20:21:24.968Z,5.68
2023-05-24T20:23:57.708Z,5.57
2023-05-24T20:26:25.029Z,5.22
2023-05-24T20:28:52.129Z,5.15
2023-05-24T20:31:19.097Z,5.97
2023-05-24T20:33:45.928Z,5.70
2023-05-24T20:36:14.939Z,5.53
2023-05-24T20:38:41.865Z,5.70
2023-05-24T20:41:08.729Z,5.60
2023-05-24T20:43:35.576Z,6.05
2023-05-24T20:46:02.468Z,6.20
2023-05-24T20:48:29.477Z,6.22
2023-05-24T20:50:56.402Z,6.85
2023-05-24T20:53:23.277Z,6.70
2023-05-24T20:55:50.160Z,6.47
2023-05-24T20:58:18.192Z,7.43
2023-05-24T21:00:45.687Z,6.95
2023-05-24T21:03:12.801Z,6.60
2023-05-24T21:05:40.334Z,6.70
2023-05-24T21:08:07.280Z,7.28
2023-05-24T21:10:34.101Z,6.97
2023-05-24T21:13:00.949Z,6.53
2023-05-24T21:15:27.855Z,7.05
2023-05-24T21:17:54.816Z,6.50
2023-05-24T21:20:21.895Z,7.07
2023-05-24T21:22:48.897Z,7.20
2023-05-24T21:25:15.869Z,6.05
2023-05-24T21:27:42.644Z,6.30
2023-05-24T21:30:09.846Z,5.90
2023-05-24T21:32:36.676Z,6.13
2023-05-24T21:35:03.667Z,6.20
2023-05-24T21:37:30.476Z,6.15
2023-05-24T21:39:57.389Z,6.00
2023-05-24T21:42:25.301Z,5.82
2023-05-24T21:44:52.082Z,5.50
2023-05-24T21:47:18.856Z,5.82
2023-05-24T21:49:46.768Z,5.55
2023-05-24T21:52:13.600Z,6.07
2023-05-24T21:54:40.385Z,5.63
2023-05-24T21:57:07.363Z,5.78
2023-05-24T21:59:34.280Z,6.00
2023-05-24T22:02:01.279Z,5.90
2023-05-24T22:04:28.208Z,5.88
2023-05-24T22:06:55.012Z,5.97
2023-05-24T22:09:22.244Z,5.82
2023-05-24T22:11:49.119Z,6.10
2023-05-24T22:14:16.233Z,5.95
2023-05-24T22:16:43.241Z,6.18
2023-05-24T22:19:12.175Z,6.10
2023-05-24T22:21:41.743Z,6.07
2023-05-24T22:24:09.729Z,6.15
2023-05-24T22:26:36.933Z,6.57
2023-05-24T22:29:03.994Z,6.57
2023-05-24T22:31:33.656Z,6.75
2023-05-24T22:34:03.489Z,6.80
2023-05-24T22:36:33.255Z,7.03
2023-05-24T22:39:01.202Z,7.18
2023-05-24T22:41:28.348Z,7.30
2023-05-24T22:43:56.954Z,7.55
2023-05-24T22:46:24.785Z,6.88
2023-05-24T22:48:52.690Z,7.50
2023-05-24T22:51:20.360Z,7.28
2023-05-24T22:53:48.354Z,8.00
2023-05-24T22:56:15.193Z,6.90
2023-05-24T22:58:41.995Z,7.38
2023-05-24T23:01:08.882Z,7.47
2023-05-24T23:03:35.942Z,7.65
2023-05-24T23:06:04.560Z,6.70
2023-05-24T23:08:32.321Z,7.47
2023-05-24T23:11:00.233Z,7.28
2023-05-24T23:13:33.306Z,7.03
2023-05-24T23:16:00.694Z,6.55
2023-05-24T23:18:27.964Z,7.40
2023-05-24T23:20:56.127Z,7.10
2023-05-24T23:23:24.858Z,7.35
2023-05-24T23:25:51.862Z,7.53
2023-05-24T23:28:19.169Z,7.57
2023-05-24T23:30:46.234Z,7.70
2023-05-24T23:33:13.034Z,7.32
2023-05-24T23:35:40.004Z,8.15
2023-05-24T23:38:06.890Z,7.40
2023-05-24T23:40:34.399Z,8.18
2023-05-24T23:43:01.233Z,7.47
2023-05-24T23:45:28.212Z,8.68
2023-05-24T23:47:55.131Z,9.18
2023-05-24T23:50:22.617Z,9.60
2023-05-24T23:52:49.823Z,9.07
2023-05-24T23:55:17.089Z,7.75
2023-05-24T23:57:44.045Z,8.30
